sensor_id;sensor_type;location;lat;lon;timestamp;P1;durP1;ratioP1;P2;durP2;ratioP2
4307;SDS011;2167;53.448;9.984;2023-04-03T00:01:00;5.17;;;1.53;;
4307;SDS011;2167;53.448;9.984;2023-04-03T00:03:26;8.87;;;1.77;;
4307;SDS011;2167;53.448;9.984;2023-04-03T00:05:58;2.90;;;1.90;;
4307;SDS011;2167;53.448;9.984;2023-04-03T00:08:37;6.22;;;3.40;;
4307;SDS011;2167;53.448;9.984;2023-04-03T00:11:03;5.37;;;3.47;;
4307;SDS011;2167;53.448;9.984;2023-04-03T00:13:30;3.23;;;1.97;;
4307;SDS011;2167;53.448;9.984;2023-04-03T00:15:56;5.37;;;2.63;;
4307;SDS011;2167;53.448;9.984;2023-04-03T00:18:22;5.20;;;2.30;;
4307;SDS011;2167;53.448;9.984;2023-04-03T00:20:48;4.57;;;2.17;;
4307;SDS011;2167;53.448;9.984;2023-04-03T00:23:14;2.10;;;1.70;;
4307;SDS011;2167;53.448;9.984;2023-04-03T00:25:40;3.30;;;2.23;;
4307;SDS011;2167;53.448;9.984;2023-04-03T00:28:06;4.07;;;1.40;;
4307;SDS011;2167;53.448;9.984;2023-04-03T00:30:32;4.63;;;1.50;;
4307;SDS011;2167;53.448;9.984;2023-04-03T00:32:58;3.27;;;1.70;;
4307;SDS011;2167;53.448;9.984;2023-04-03T00:35:25;5.17;;;1.80;;
4307;SDS011;2167;53.448;9.984;2023-04-03T00:37:51;1.83;;;1.30;;
4307;SDS011;2167;53.448;9.984;2023-04-03T00:40:21;5.20;;;1.33;;
4307;SDS011;2167;53.448;9.984;2023-04-03T00:42:51;1.63;;;1.40;;
4307;SDS011;2167;53.448;9.984;2023-04-03T00:45:30;1.97;;;0.87;;
4307;SDS011;2167;53.448;9.984;2023-04-03T00:48:05;2.57;;;1.87;;
4307;SDS011;2167;53.448;9.984;2023-04-03T00:50:35;3.93;;;1.70;;
4307;SDS011;2167;53.448;9.984;2023-04-03T00:53:04;1.80;;;1.13;;
4307;SDS011;2167;53.448;9.984;2023-04-03T00:55:34;2.70;;;2.13;;
4307;SDS011;2167;53.448;9.984;2023-04-03T00:58:01;1.00;;;1.00;;
4307;SDS011;2167;53.448;9.984;2023-04-03T01:00:27;8.32;;;2.25;;
4307;SDS011;2167;53.448;9.984;2023-04-03T01:02:53;1.10;;;1.00;;
4307;SDS011;2167;53.448;9.984;2023-04-03T01:05:19;1.83;;;1.37;;
4307;SDS011;2167;53.448;9.984;2023-04-03T01:07:46;4.10;;;2.07;;
4307;SDS011;2167;53.448;9.984;2023-04-03T01:10:13;1.83;;;1.73;;
4307;SDS011;2167;53.448;9.984;2023-04-03T01:12:43;1.80;;;1.20;;
4307;SDS011;2167;53.448;9.984;2023-04-03T01:15:11;2.50;;;1.60;;
4307;SDS011;2167;53.448;9.984;2023-04-03T01:17:47;6.50;;;1.53;;
4307;SDS011;2167;53.448;9.984;2023-04-03T01:25:35;5.50;;;2.20;;
4307;SDS011;2167;53.448;9.984;2023-04-03T01:28:04;3.78;;;2.00;;
4307;SDS011;2167;53.448;9.984;2023-04-03T01:30:33;2.63;;;1.20;;
4307;SDS011;2167;53.448;9.984;2023-04-03T01:33:02;2.20;;;1.30;;
4307;SDS011;2167;53.448;9.984;2023-04-03T01:35:28;3.00;;;1.67;;
4307;SDS011;2167;53.448;9.984;2023-04-03T01:37:53;1.27;;;1.20;;
4307;SDS011;2167;53.448;9.984;2023-04-03T01:40:19;1.30;;;1.20;;
4307;SDS011;2167;53.448;9.984;2023-04-03T01:42:44;4.23;;;1.53;;
4307;SDS011;2167;53.448;9.984;2023-04-03T01:45:10;6.80;;;1.57;;
4307;SDS011;2167;53.448;9.984;2023-04-03T01:47:36;6.90;;;2.93;;
4307;SDS011;2167;53.448;9.984;2023-04-03T01:50:01;2.30;;;1.93;;
4307;SDS011;2167;53.448;9.984;2023-04-03T01:52:27;2.30;;;2.10;;
4307;SDS011;2167;53.448;9.984;2023-04-03T01:54:53;3.60;;;1.70;;
4307;SDS011;2167;53.448;9.984;2023-04-03T01:57:18;4.10;;;1.80;;
4307;SDS011;2167;53.448;9.984;2023-04-03T01:59:44;1.93;;;1.73;;
4307;SDS011;2167;53.448;9.984;2023-04-03T02:02:10;2.23;;;1.73;;
4307;SDS011;2167;53.448;9.984;2023-04-03T02:04:37;2.10;;;1.43;;
4307;SDS011;2167;53.448;9.984;2023-04-03T02:07:03;3.63;;;2.20;;
4307;SDS011;2167;53.448;9.984;2023-04-03T02:09:28;3.27;;;2.37;;
4307;SDS011;2167;53.448;9.984;2023-04-03T02:11:54;2.00;;;1.33;;
4307;SDS011;2167;53.448;9.984;2023-04-03T02:14:20;1.30;;;1.00;;
4307;SDS011;2167;53.448;9.984;2023-04-03T02:16:46;6.10;;;1.33;;
4307;SDS011;2167;53.448;9.984;2023-04-03T02:19:12;1.80;;;1.30;;
4307;SDS011;2167;53.448;9.984;2023-04-03T02:21:38;3.50;;;1.67;;
4307;SDS011;2167;53.448;9.984;2023-04-03T02:24:03;3.70;;;2.70;;
4307;SDS011;2167;53.448;9.984;2023-04-03T02:26:30;1.20;;;1.20;;
4307;SDS011;2167;53.448;9.984;2023-04-03T02:28:56;2.97;;;1.60;;
4307;SDS011;2167;53.448;9.984;2023-04-03T02:31:21;4.37;;;2.17;;
4307;SDS011;2167;53.448;9.984;2023-04-03T02:33:47;2.03;;;1.07;;
4307;SDS011;2167;53.448;9.984;2023-04-03T02:36:13;2.30;;;0.90;;
4307;SDS011;2167;53.448;9.984;2023-04-03T02:38:39;2.00;;;1.47;;
4307;SDS011;2167;53.448;9.984;2023-04-03T02:41:05;1.73;;;1.40;;
4307;SDS011;2167;53.448;9.984;2023-04-03T02:43:33;2.47;;;1.57;;
4307;SDS011;2167;53.448;9.984;2023-04-03T02:45:59;2.60;;;1.37;;
4307;SDS011;2167;53.448;9.984;2023-04-03T02:48:25;2.40;;;2.20;;
4307;SDS011;2167;53.448;9.984;2023-04-03T02:50:51;4.23;;;1.47;;
4307;SDS011;2167;53.448;9.984;2023-04-03T02:53:17;1.40;;;1.30;;
4307;SDS011;2167;53.448;9.984;2023-04-03T02:55:43;1.47;;;0.70;;
4307;SDS011;2167;53.448;9.984;2023-04-03T02:58:09;3.30;;;1.40;;
4307;SDS011;2167;53.448;9.984;2023-04-03T03:00:35;1.50;;;1.20;;
4307;SDS011;2167;53.448;9.984;2023-04-03T03:03:01;1.23;;;0.80;;
4307;SDS011;2167;53.448;9.984;2023-04-03T03:05:27;4.57;;;1.80;;
4307;SDS011;2167;53.448;9.984;2023-04-03T03:07:53;1.33;;;1.07;;
4307;SDS011;2167;53.448;9.984;2023-04-03T03:10:20;1.70;;;1.20;;
4307;SDS011;2167;53.448;9.984;2023-04-03T03:12:46;2.50;;;1.00;;
4307;SDS011;2167;53.448;9.984;2023-04-03T03:15:12;2.30;;;2.10;;
4307;SDS011;2167;53.448;9.984;2023-04-03T03:17:38;11.10;;;1.27;;
4307;SDS011;2167;53.448;9.984;2023-04-03T03:20:04;2.10;;;1.20;;
4307;SDS011;2167;53.448;9.984;2023-04-03T03:22:30;12.90;;;1.47;;
4307;SDS011;2167;53.448;9.984;2023-04-03T03:24:57;2.50;;;1.47;;
4307;SDS011;2167;53.448;9.984;2023-04-03T03:27:23;0.53;;;0.53;;
4307;SDS011;2167;53.448;9.984;2023-04-03T03:29:49;5.28;;;1.70;;
4307;SDS011;2167;53.448;9.984;2023-04-03T03:32:15;5.23;;;1.73;;
4307;SDS011;2167;53.448;9.984;2023-04-03T03:34:40;2.40;;;1.30;;
4307;SDS011;2167;53.448;9.984;2023-04-03T03:37:06;8.43;;;1.53;;
4307;SDS011;2167;53.448;9.984;2023-04-03T03:39:31;5.70;;;1.17;;
4307;SDS011;2167;53.448;9.984;2023-04-03T03:41:57;2.17;;;1.67;;
4307;SDS011;2167;53.448;9.984;2023-04-03T03:44:23;11.63;;;1.57;;
4307;SDS011;2167;53.448;9.984;2023-04-03T03:46:48;1.00;;;0.83;;
4307;SDS011;2167;53.448;9.984;2023-04-03T03:49:14;2.33;;;1.30;;
4307;SDS011;2167;53.448;9.984;2023-04-03T03:51:40;2.17;;;0.97;;
4307;SDS011;2167;53.448;9.984;2023-04-03T03:54:06;0.70;;;0.70;;
4307;SDS011;2167;53.448;9.984;2023-04-03T03:56:32;4.03;;;1.43;;
4307;SDS011;2167;53.448;9.984;2023-04-03T03:58:59;1.30;;;1.10;;
4307;SDS011;2167;53.448;9.984;2023-04-03T04:01:24;3.47;;;2.00;;
4307;SDS011;2167;53.448;9.984;2023-04-03T04:03:50;7.93;;;1.43;;
4307;SDS011;2167;53.448;9.984;2023-04-03T04:06:16;5.60;;;1.27;;
4307;SDS011;2167;53.448;9.984;2023-04-03T04:08:42;7.17;;;1.53;;
4307;SDS011;2167;53.448;9.984;2023-04-03T04:11:08;0.93;;;0.93;;
4307;SDS011;2167;53.448;9.984;2023-04-03T04:13:34;5.88;;;1.80;;
4307;SDS011;2167;53.448;9.984;2023-04-03T04:16:00;2.20;;;1.00;;
4307;SDS011;2167;53.448;9.984;2023-04-03T04:18:27;3.70;;;2.22;;
4307;SDS011;2167;53.448;9.984;2023-04-03T04:20:53;8.63;;;1.67;;
4307;SDS011;2167;53.448;9.984;2023-04-03T04:23:18;1.90;;;1.80;;
4307;SDS011;2167;53.448;9.984;2023-04-03T04:25:45;2.87;;;1.03;;
4307;SDS011;2167;53.448;9.984;2023-04-03T04:28:11;5.23;;;1.93;;
4307;SDS011;2167;53.448;9.984;2023-04-03T04:30:37;3.30;;;2.00;;
4307;SDS011;2167;53.448;9.984;2023-04-03T04:33:03;1.20;;;1.17;;
4307;SDS011;2167;53.448;9.984;2023-04-03T04:35:28;1.43;;;1.13;;
4307;SDS011;2167;53.448;9.984;2023-04-03T04:37:54;1.50;;;0.80;;
4307;SDS011;2167;53.448;9.984;2023-04-03T04:40:20;1.57;;;1.47;;
4307;SDS011;2167;53.448;9.984;2023-04-03T04:42:46;5.13;;;2.00;;
4307;SDS011;2167;53.448;9.984;2023-04-03T04:45:11;3.13;;;1.27;;
4307;SDS011;2167;53.448;9.984;2023-04-03T04:47:37;1.33;;;1.23;;
4307;SDS011;2167;53.448;9.984;2023-04-03T04:50:03;1.83;;;1.10;;
4307;SDS011;2167;53.448;9.984;2023-04-03T04:52:29;2.93;;;1.27;;
4307;SDS011;2167;53.448;9.984;2023-04-03T04:54:54;15.33;;;2.60;;
4307;SDS011;2167;53.448;9.984;2023-04-03T04:57:20;1.23;;;0.93;;
4307;SDS011;2167;53.448;9.984;2023-04-03T04:59:46;2.27;;;1.50;;
4307;SDS011;2167;53.448;9.984;2023-04-03T05:02:12;1.80;;;1.17;;
4307;SDS011;2167;53.448;9.984;2023-04-03T05:04:37;2.50;;;0.90;;
4307;SDS011;2167;53.448;9.984;2023-04-03T05:07:03;4.23;;;1.57;;
4307;SDS011;2167;53.448;9.984;2023-04-03T05:09:28;2.10;;;1.33;;
4307;SDS011;2167;53.448;9.984;2023-04-03T05:11:54;1.70;;;1.20;;
4307;SDS011;2167;53.448;9.984;2023-04-03T05:14:21;1.20;;;0.97;;
4307;SDS011;2167;53.448;9.984;2023-04-03T05:16:46;2.27;;;0.83;;
4307;SDS011;2167;53.448;9.984;2023-04-03T05:19:12;1.93;;;1.20;;
4307;SDS011;2167;53.448;9.984;2023-04-03T05:21:38;6.50;;;1.17;;
4307;SDS011;2167;53.448;9.984;2023-04-03T05:24:04;1.50;;;1.23;;
4307;SDS011;2167;53.448;9.984;2023-04-03T05:26:30;4.67;;;2.70;;
4307;SDS011;2167;53.448;9.984;2023-04-03T05:28:56;1.97;;;1.80;;
4307;SDS011;2167;53.448;9.984;2023-04-03T05:31:22;2.37;;;1.60;;
4307;SDS011;2167;53.448;9.984;2023-04-03T05:33:48;4.07;;;1.10;;
4307;SDS011;2167;53.448;9.984;2023-04-03T05:36:14;1.23;;;1.00;;
4307;SDS011;2167;53.448;9.984;2023-04-03T05:38:39;2.00;;;0.77;;
4307;SDS011;2167;53.448;9.984;2023-04-03T05:41:05;4.20;;;1.30;;
4307;SDS011;2167;53.448;9.984;2023-04-03T05:43:31;5.70;;;2.60;;
4307;SDS011;2167;53.448;9.984;2023-04-03T05:45:59;4.90;;;2.57;;
4307;SDS011;2167;53.448;9.984;2023-04-03T05:48:25;1.33;;;1.23;;
4307;SDS011;2167;53.448;9.984;2023-04-03T05:50:51;5.43;;;1.40;;
4307;SDS011;2167;53.448;9.984;2023-04-03T05:53:25;10.25;;;2.85;;
4307;SDS011;2167;53.448;9.984;2023-04-03T05:55:56;1.20;;;1.07;;
4307;SDS011;2167;53.448;9.984;2023-04-03T05:58:21;3.97;;;1.57;;
4307;SDS011;2167;53.448;9.984;2023-04-03T06:00:47;4.70;;;2.67;;
4307;SDS011;2167;53.448;9.984;2023-04-03T06:03:13;5.70;;;2.10;;
4307;SDS011;2167;53.448;9.984;2023-04-03T06:05:38;1.60;;;1.50;;
4307;SDS011;2167;53.448;9.984;2023-04-03T06:08:04;1.50;;;1.03;;
4307;SDS011;2167;53.448;9.984;2023-04-03T06:10:34;6.33;;;2.57;;
4307;SDS011;2167;53.448;9.984;2023-04-03T06:13:01;1.83;;;1.73;;
4307;SDS011;2167;53.448;9.984;2023-04-03T06:15:27;4.33;;;2.33;;
4307;SDS011;2167;53.448;9.984;2023-04-03T06:17:53;1.73;;;1.27;;
4307;SDS011;2167;53.448;9.984;2023-04-03T06:20:19;3.07;;;2.20;;
4307;SDS011;2167;53.448;9.984;2023-04-03T06:22:44;6.33;;;2.60;;
4307;SDS011;2167;53.448;9.984;2023-04-03T06:25:10;1.50;;;1.40;;
4307;SDS011;2167;53.448;9.984;2023-04-03T06:27:37;6.03;;;2.50;;
4307;SDS011;2167;53.448;9.984;2023-04-03T06:30:03;4.70;;;2.07;;
4307;SDS011;2167;53.448;9.984;2023-04-03T06:32:30;2.83;;;1.67;;
4307;SDS011;2167;53.448;9.984;2023-04-03T06:34:56;1.73;;;1.33;;
4307;SDS011;2167;53.448;9.984;2023-04-03T06:37:22;6.27;;;1.63;;
4307;SDS011;2167;53.448;9.984;2023-04-03T06:39:51;3.23;;;1.30;;
4307;SDS011;2167;53.448;9.984;2023-04-03T06:42:16;3.17;;;1.30;;
4307;SDS011;2167;53.448;9.984;2023-04-03T06:44:42;4.33;;;1.23;;
4307;SDS011;2167;53.448;9.984;2023-04-03T06:47:09;2.60;;;1.03;;
4307;SDS011;2167;53.448;9.984;2023-04-03T06:49:37;1.60;;;1.43;;
4307;SDS011;2167;53.448;9.984;2023-04-03T06:52:03;3.70;;;1.60;;
4307;SDS011;2167;53.448;9.984;2023-04-03T06:54:30;3.50;;;1.90;;
4307;SDS011;2167;53.448;9.984;2023-04-03T06:56:56;2.00;;;1.80;;
4307;SDS011;2167;53.448;9.984;2023-04-03T06:59:21;1.47;;;1.13;;
4307;SDS011;2167;53.448;9.984;2023-04-03T07:01:47;1.92;;;1.30;;
4307;SDS011;2167;53.448;9.984;2023-04-03T07:04:13;1.83;;;1.60;;
4307;SDS011;2167;53.448;9.984;2023-04-03T07:06:41;2.53;;;1.30;;
4307;SDS011;2167;53.448;9.984;2023-04-03T07:09:07;1.10;;;1.00;;
4307;SDS011;2167;53.448;9.984;2023-04-03T07:11:34;5.13;;;1.20;;
4307;SDS011;2167;53.448;9.984;2023-04-03T07:14:01;7.87;;;1.70;;
4307;SDS011;2167;53.448;9.984;2023-04-03T07:16:31;1.70;;;1.40;;
4307;SDS011;2167;53.448;9.984;2023-04-03T07:18:57;2.60;;;0.90;;
4307;SDS011;2167;53.448;9.984;2023-04-03T07:21:23;2.67;;;1.17;;
4307;SDS011;2167;53.448;9.984;2023-04-03T07:23:49;1.43;;;0.60;;
4307;SDS011;2167;53.448;9.984;2023-04-03T07:26:15;3.00;;;1.60;;
4307;SDS011;2167;53.448;9.984;2023-04-03T07:28:41;3.97;;;1.20;;
4307;SDS011;2167;53.448;9.984;2023-04-03T07:31:07;9.20;;;1.33;;
4307;SDS011;2167;53.448;9.984;2023-04-03T07:33:39;3.03;;;0.83;;
4307;SDS011;2167;53.448;9.984;2023-04-03T07:36:05;9.03;;;2.30;;
4307;SDS011;2167;53.448;9.984;2023-04-03T07:38:32;1.20;;;1.10;;
4307;SDS011;2167;53.448;9.984;2023-04-03T07:40:58;1.40;;;1.30;;
4307;SDS011;2167;53.448;9.984;2023-04-03T07:43:24;2.10;;;1.17;;
4307;SDS011;2167;53.448;9.984;2023-04-03T07:45:51;2.35;;;1.10;;
4307;SDS011;2167;53.448;9.984;2023-04-03T07:48:19;3.27;;;1.17;;
4307;SDS011;2167;53.448;9.984;2023-04-03T07:50:49;1.90;;;1.27;;
4307;SDS011;2167;53.448;9.984;2023-04-03T07:53:15;1.27;;;0.70;;
4307;SDS011;2167;53.448;9.984;2023-04-03T07:55:41;1.00;;;0.67;;
4307;SDS011;2167;53.448;9.984;2023-04-03T07:58:11;0.80;;;0.80;;
4307;SDS011;2167;53.448;9.984;2023-04-03T08:00:37;4.27;;;1.03;;
4307;SDS011;2167;53.448;9.984;2023-04-03T08:03:04;1.87;;;1.00;;
4307;SDS011;2167;53.448;9.984;2023-04-03T08:05:30;0.70;;;0.70;;
4307;SDS011;2167;53.448;9.984;2023-04-03T08:07:57;2.53;;;1.03;;
4307;SDS011;2167;53.448;9.984;2023-04-03T08:10:24;1.70;;;0.80;;
4307;SDS011;2167;53.448;9.984;2023-04-03T08:12:49;2.87;;;0.83;;
4307;SDS011;2167;53.448;9.984;2023-04-03T08:15:18;1.53;;;1.17;;
4307;SDS011;2167;53.448;9.984;2023-04-03T08:17:43;0.63;;;0.57;;
4307;SDS011;2167;53.448;9.984;2023-04-03T08:20:09;1.30;;;1.03;;
4307;SDS011;2167;53.448;9.984;2023-04-03T08:22:35;1.30;;;0.77;;
4307;SDS011;2167;53.448;9.984;2023-04-03T08:25:01;0.90;;;0.50;;
4307;SDS011;2167;53.448;9.984;2023-04-03T08:27:26;4.70;;;1.30;;
4307;SDS011;2167;53.448;9.984;2023-04-03T08:29:53;1.20;;;0.60;;
4307;SDS011;2167;53.448;9.984;2023-04-03T08:32:19;0.70;;;0.67;;
4307;SDS011;2167;53.448;9.984;2023-04-03T08:34:45;0.57;;;0.30;;
4307;SDS011;2167;53.448;9.984;2023-04-03T08:37:11;0.50;;;0.40;;
4307;SDS011;2167;53.448;9.984;2023-04-03T08:39:36;3.60;;;0.87;;
4307;SDS011;2167;53.448;9.984;2023-04-03T08:50:30;0.70;;;0.43;;
4307;SDS011;2167;53.448;9.984;2023-04-03T08:53:02;1.90;;;0.73;;
4307;SDS011;2167;53.448;9.984;2023-04-03T08:55:33;1.47;;;1.20;;
4307;SDS011;2167;53.448;9.984;2023-04-03T09:00:34;0.50;;;0.43;;
4307;SDS011;2167;53.448;9.984;2023-04-03T09:03:12;0.77;;;0.47;;
4307;SDS011;2167;53.448;9.984;2023-04-03T09:05:40;1.60;;;0.43;;
4307;SDS011;2167;53.448;9.984;2023-04-03T09:11:24;1.53;;;0.53;;
4307;SDS011;2167;53.448;9.984;2023-04-03T09:13:57;1.07;;;0.87;;
4307;SDS011;2167;53.448;9.984;2023-04-03T09:16:35;1.17;;;0.50;;
4307;SDS011;2167;53.448;9.984;2023-04-03T09:19:24;0.63;;;0.30;;
4307;SDS011;2167;53.448;9.984;2023-04-03T09:21:56;1.70;;;0.63;;
4307;SDS011;2167;53.448;9.984;2023-04-03T09:24:23;0.90;;;0.50;;
4307;SDS011;2167;53.448;9.984;2023-04-03T09:29:18;1.27;;;0.50;;
4307;SDS011;2167;53.448;9.984;2023-04-03T09:31:48;0.70;;;0.53;;
4307;SDS011;2167;53.448;9.984;2023-04-03T09:34:22;0.67;;;0.60;;
4307;SDS011;2167;53.448;9.984;2023-04-03T09:36:53;0.50;;;0.40;;
4307;SDS011;2167;53.448;9.984;2023-04-03T09:39:24;3.10;;;0.70;;
4307;SDS011;2167;53.448;9.984;2023-04-03T09:41:55;0.60;;;0.60;;
4307;SDS011;2167;53.448;9.984;2023-04-03T09:44:26;2.43;;;0.70;;
4307;SDS011;2167;53.448;9.984;2023-04-03T09:46:56;2.83;;;0.57;;
4307;SDS011;2167;53.448;9.984;2023-04-03T09:49:22;2.00;;;0.70;;
4307;SDS011;2167;53.448;9.984;2023-04-03T09:51:48;0.83;;;0.50;;
4307;SDS011;2167;53.448;9.984;2023-04-03T09:54:25;0.90;;;0.60;;
4307;SDS011;2167;53.448;9.984;2023-04-03T09:57:06;1.47;;;0.70;;
4307;SDS011;2167;53.448;9.984;2023-04-03T09:59:33;1.33;;;0.70;;
4307;SDS011;2167;53.448;9.984;2023-04-03T10:02:00;0.90;;;0.80;;
4307;SDS011;2167;53.448;9.984;2023-04-03T10:04:41;2.10;;;1.03;;
4307;SDS011;2167;53.448;9.984;2023-04-03T10:07:26;2.13;;;0.70;;
4307;SDS011;2167;53.448;9.984;2023-04-03T10:10:16;1.95;;;0.93;;
4307;SDS011;2167;53.448;9.984;2023-04-03T10:12:45;1.03;;;0.93;;
4307;SDS011;2167;53.448;9.984;2023-04-03T10:15:14;0.80;;;0.70;;
4307;SDS011;2167;53.448;9.984;2023-04-03T10:18:00;2.90;;;0.90;;
4307;SDS011;2167;53.448;9.984;2023-04-03T10:31:14;2.65;;;0.70;;
4307;SDS011;2167;53.448;9.984;2023-04-03T10:36:43;2.53;;;0.63;;
4307;SDS011;2167;53.448;9.984;2023-04-03T10:47:11;1.10;;;0.80;;
4307;SDS011;2167;53.448;9.984;2023-04-03T10:50:00;2.00;;;0.43;;
4307;SDS011;2167;53.448;9.984;2023-04-03T10:52:51;2.10;;;0.77;;
4307;SDS011;2167;53.448;9.984;2023-04-03T10:56:29;0.40;;;0.40;;
4307;SDS011;2167;53.448;9.984;2023-04-03T10:58:39;0.50;;;0.50;;
4307;SDS011;2167;53.448;9.984;2023-04-03T11:01:11;3.10;;;0.73;;
4307;SDS011;2167;53.448;9.984;2023-04-03T11:03:59;6.53;;;0.93;;
4307;SDS011;2167;53.448;9.984;2023-04-03T11:06:30;0.83;;;0.63;;
4307;SDS011;2167;53.448;9.984;2023-04-03T11:12:24;1.17;;;0.70;;
4307;SDS011;2167;53.448;9.984;2023-04-03T11:15:12;0.80;;;0.43;;
4307;SDS011;2167;53.448;9.984;2023-04-03T11:17:42;0.83;;;0.83;;
4307;SDS011;2167;53.448;9.984;2023-04-03T11:22:53;1.83;;;0.90;;
4307;SDS011;2167;53.448;9.984;2023-04-03T11:25:24;1.10;;;0.40;;
4307;SDS011;2167;53.448;9.984;2023-04-03T11:27:54;0.70;;;0.67;;
4307;SDS011;2167;53.448;9.984;2023-04-03T11:30:27;1.00;;;0.67;;
4307;SDS011;2167;53.448;9.984;2023-04-03T11:35:48;0.63;;;0.63;;
4307;SDS011;2167;53.448;9.984;2023-04-03T11:38:41;1.57;;;0.77;;
4307;SDS011;2167;53.448;9.984;2023-04-03T11:41:09;0.73;;;0.70;;
4307;SDS011;2167;53.448;9.984;2023-04-03T11:43:41;0.83;;;0.60;;
4307;SDS011;2167;53.448;9.984;2023-04-03T11:46:21;3.73;;;0.60;;
4307;SDS011;2167;53.448;9.984;2023-04-03T11:48:48;2.43;;;0.70;;
4307;SDS011;2167;53.448;9.984;2023-04-03T11:53:53;1.40;;;0.63;;
4307;SDS011;2167;53.448;9.984;2023-04-03T12:04:18;1.60;;;0.87;;
4307;SDS011;2167;53.448;9.984;2023-04-03T12:06:50;5.80;;;1.53;;
4307;SDS011;2167;53.448;9.984;2023-04-03T12:09:34;1.40;;;0.70;;
4307;SDS011;2167;53.448;9.984;2023-04-03T12:12:33;0.73;;;0.50;;
4307;SDS011;2167;53.448;9.984;2023-04-03T12:21:22;0.90;;;0.57;;
4307;SDS011;2167;53.448;9.984;2023-04-03T12:26:34;1.70;;;0.70;;
4307;SDS011;2167;53.448;9.984;2023-04-03T12:35:39;3.30;;;1.13;;
4307;SDS011;2167;53.448;9.984;2023-04-03T12:41:15;0.57;;;0.57;;
4307;SDS011;2167;53.448;9.984;2023-04-03T12:44:04;0.80;;;0.50;;
4307;SDS011;2167;53.448;9.984;2023-04-03T12:46:50;0.70;;;0.30;;
4307;SDS011;2167;53.448;9.984;2023-04-03T12:51:58;0.40;;;0.40;;
4307;SDS011;2167;53.448;9.984;2023-04-03T12:56:50;4.10;;;0.90;;
4307;SDS011;2167;53.448;9.984;2023-04-03T13:01:56;3.70;;;0.70;;
4307;SDS011;2167;53.448;9.984;2023-04-03T13:04:23;0.80;;;0.60;;
4307;SDS011;2167;53.448;9.984;2023-04-03T13:06:49;0.60;;;0.60;;
4307;SDS011;2167;53.448;9.984;2023-04-03T13:11:48;1.07;;;0.93;;
4307;SDS011;2167;53.448;9.984;2023-04-03T13:14:18;1.13;;;0.50;;
4307;SDS011;2167;53.448;9.984;2023-04-03T13:17:03;1.80;;;0.90;;
4307;SDS011;2167;53.448;9.984;2023-04-03T13:19:35;1.13;;;0.70;;
4307;SDS011;2167;53.448;9.984;2023-04-03T13:22:04;4.90;;;1.20;;
4307;SDS011;2167;53.448;9.984;2023-04-03T13:24:34;0.50;;;0.50;;
4307;SDS011;2167;53.448;9.984;2023-04-03T13:27:04;1.43;;;0.97;;
4307;SDS011;2167;53.448;9.984;2023-04-03T13:29:32;2.83;;;1.20;;
4307;SDS011;2167;53.448;9.984;2023-04-03T13:32:00;1.35;;;1.10;;
4307;SDS011;2167;53.448;9.984;2023-04-03T13:34:28;4.27;;;0.90;;
4307;SDS011;2167;53.448;9.984;2023-04-03T13:37:00;1.53;;;0.60;;
4307;SDS011;2167;53.448;9.984;2023-04-03T13:39:33;2.10;;;0.83;;
4307;SDS011;2167;53.448;9.984;2023-04-03T13:42:15;1.03;;;0.60;;
4307;SDS011;2167;53.448;9.984;2023-04-03T13:44:41;0.70;;;0.43;;
4307;SDS011;2167;53.448;9.984;2023-04-03T13:49:41;1.33;;;0.80;;
4307;SDS011;2167;53.448;9.984;2023-04-03T13:54:51;0.70;;;0.40;;
4307;SDS011;2167;53.448;9.984;2023-04-03T13:57:20;1.17;;;0.60;;
4307;SDS011;2167;53.448;9.984;2023-04-03T13:59:46;1.43;;;0.63;;
4307;SDS011;2167;53.448;9.984;2023-04-03T14:02:14;0.70;;;0.50;;
4307;SDS011;2167;53.448;9.984;2023-04-03T14:04:48;1.80;;;0.57;;
4307;SDS011;2167;53.448;9.984;2023-04-03T14:07:18;0.73;;;0.70;;
4307;SDS011;2167;53.448;9.984;2023-04-03T14:09:46;2.43;;;0.70;;
4307;SDS011;2167;53.448;9.984;2023-04-03T14:12:15;0.50;;;0.40;;
4307;SDS011;2167;53.448;9.984;2023-04-03T14:15:02;0.60;;;0.50;;
4307;SDS011;2167;53.448;9.984;2023-04-03T14:17:30;2.00;;;0.80;;
4307;SDS011;2167;53.448;9.984;2023-04-03T14:19:56;0.80;;;0.60;;
4307;SDS011;2167;53.448;9.984;2023-04-03T14:22:25;2.03;;;0.63;;
4307;SDS011;2167;53.448;9.984;2023-04-03T14:24:55;1.13;;;0.67;;
4307;SDS011;2167;53.448;9.984;2023-04-03T14:27:29;1.20;;;0.80;;
4307;SDS011;2167;53.448;9.984;2023-04-03T14:30:00;0.83;;;0.70;;
4307;SDS011;2167;53.448;9.984;2023-04-03T14:32:28;1.27;;;0.80;;
4307;SDS011;2167;53.448;9.984;2023-04-03T14:34:54;1.90;;;0.67;;
4307;SDS011;2167;53.448;9.984;2023-04-03T14:37:23;1.80;;;1.23;;
4307;SDS011;2167;53.448;9.984;2023-04-03T14:39:52;2.80;;;0.90;;
4307;SDS011;2167;53.448;9.984;2023-04-03T14:42:19;0.40;;;0.40;;
4307;SDS011;2167;53.448;9.984;2023-04-03T14:44:49;1.40;;;0.53;;
4307;SDS011;2167;53.448;9.984;2023-04-03T14:47:16;1.00;;;0.63;;
4307;SDS011;2167;53.448;9.984;2023-04-03T14:49:47;1.03;;;0.70;;
4307;SDS011;2167;53.448;9.984;2023-04-03T14:52:23;0.73;;;0.50;;
4307;SDS011;2167;53.448;9.984;2023-04-03T14:54:51;1.00;;;0.67;;
4307;SDS011;2167;53.448;9.984;2023-04-03T14:57:18;0.80;;;0.60;;
4307;SDS011;2167;53.448;9.984;2023-04-03T14:59:52;2.40;;;1.27;;
4307;SDS011;2167;53.448;9.984;2023-04-03T15:05:02;1.10;;;0.73;;
4307;SDS011;2167;53.448;9.984;2023-04-03T15:07:30;1.57;;;0.70;;
4307;SDS011;2167;53.448;9.984;2023-04-03T15:12:47;1.30;;;0.90;;
4307;SDS011;2167;53.448;9.984;2023-04-03T15:15:14;1.90;;;0.70;;
4307;SDS011;2167;53.448;9.984;2023-04-03T15:17:41;1.40;;;0.50;;
4307;SDS011;2167;53.448;9.984;2023-04-03T15:20:12;1.10;;;0.50;;
4307;SDS011;2167;53.448;9.984;2023-04-03T15:22:42;0.90;;;0.67;;
4307;SDS011;2167;53.448;9.984;2023-04-03T15:25:08;2.43;;;0.80;;
4307;SDS011;2167;53.448;9.984;2023-04-03T15:27:37;0.73;;;0.73;;
4307;SDS011;2167;53.448;9.984;2023-04-03T15:30:07;0.70;;;0.60;;
4307;SDS011;2167;53.448;9.984;2023-04-03T15:32:38;1.50;;;0.97;;
4307;SDS011;2167;53.448;9.984;2023-04-03T15:35:07;4.10;;;0.93;;
4307;SDS011;2167;53.448;9.984;2023-04-03T15:37:33;2.10;;;0.80;;
4307;SDS011;2167;53.448;9.984;2023-04-03T15:39:58;0.53;;;0.50;;
4307;SDS011;2167;53.448;9.984;2023-04-03T15:42:24;1.80;;;0.73;;
4307;SDS011;2167;53.448;9.984;2023-04-03T15:44:50;1.20;;;0.83;;
4307;SDS011;2167;53.448;9.984;2023-04-03T15:47:15;1.00;;;0.60;;
4307;SDS011;2167;53.448;9.984;2023-04-03T15:49:41;0.57;;;0.57;;
4307;SDS011;2167;53.448;9.984;2023-04-03T15:52:07;0.83;;;0.63;;
4307;SDS011;2167;53.448;9.984;2023-04-03T15:54:38;0.77;;;0.73;;
4307;SDS011;2167;53.448;9.984;2023-04-03T15:57:04;1.03;;;0.70;;
4307;SDS011;2167;53.448;9.984;2023-04-03T15:59:29;0.83;;;0.63;;
4307;SDS011;2167;53.448;9.984;2023-04-03T16:01:56;2.33;;;0.60;;
4307;SDS011;2167;53.448;9.984;2023-04-03T16:04:23;1.37;;;0.63;;
4307;SDS011;2167;53.448;9.984;2023-04-03T16:06:51;1.43;;;0.80;;
4307;SDS011;2167;53.448;9.984;2023-04-03T16:09:17;1.70;;;0.50;;
4307;SDS011;2167;53.448;9.984;2023-04-03T16:11:43;2.43;;;0.77;;
4307;SDS011;2167;53.448;9.984;2023-04-03T16:14:13;2.60;;;0.90;;
4307;SDS011;2167;53.448;9.984;2023-04-03T16:16:39;0.93;;;0.70;;
4307;SDS011;2167;53.448;9.984;2023-04-03T16:19:09;3.10;;;1.10;;
4307;SDS011;2167;53.448;9.984;2023-04-03T16:21:40;1.13;;;0.70;;
4307;SDS011;2167;53.448;9.984;2023-04-03T16:24:05;1.23;;;1.00;;
4307;SDS011;2167;53.448;9.984;2023-04-03T16:26:31;2.13;;;0.67;;
4307;SDS011;2167;53.448;9.984;2023-04-03T16:28:57;0.97;;;0.60;;
4307;SDS011;2167;53.448;9.984;2023-04-03T16:31:23;0.50;;;0.50;;
4307;SDS011;2167;53.448;9.984;2023-04-03T16:33:56;1.43;;;1.10;;
4307;SDS011;2167;53.448;9.984;2023-04-03T16:36:23;2.90;;;1.07;;
4307;SDS011;2167;53.448;9.984;2023-04-03T16:38:52;1.57;;;1.23;;
4307;SDS011;2167;53.448;9.984;2023-04-03T16:41:18;0.67;;;0.67;;
4307;SDS011;2167;53.448;9.984;2023-04-03T16:43:44;2.20;;;0.70;;
4307;SDS011;2167;53.448;9.984;2023-04-03T16:46:09;2.97;;;1.00;;
4307;SDS011;2167;53.448;9.984;2023-04-03T16:48:35;1.17;;;1.00;;
4307;SDS011;2167;53.448;9.984;2023-04-03T16:51:01;0.77;;;0.77;;
4307;SDS011;2167;53.448;9.984;2023-04-03T16:53:27;1.90;;;0.60;;
4307;SDS011;2167;53.448;9.984;2023-04-03T16:55:53;0.90;;;0.67;;
4307;SDS011;2167;53.448;9.984;2023-04-03T16:58:23;2.47;;;1.10;;
4307;SDS011;2167;53.448;9.984;2023-04-03T17:00:52;3.70;;;1.07;;
4307;SDS011;2167;53.448;9.984;2023-04-03T17:03:18;1.00;;;0.73;;
4307;SDS011;2167;53.448;9.984;2023-04-03T17:05:50;0.83;;;0.80;;